createdAt,value
2019-04-06T00:02:17.767Z,22.45
2019-04-06T00:05:06.581Z,22.40
2019-04-06T00:07:35.025Z,23.85
2019-04-06T00:10:04.509Z,22.30
2019-04-06T00:12:32.957Z,24.20
2019-04-06T00:15:01.501Z,26.33
2019-04-06T00:17:29.945Z,22.65
2019-04-06T00:19:58.413Z,22.35
2019-04-06T00:22:26.829Z,23.87
2019-04-06T00:24:55.595Z,22.55
2019-04-06T00:27:24.714Z,22.35
2019-04-06T00:29:53.595Z,24.05
2019-04-06T00:32:32.690Z,21.00
2019-04-06T00:35:01.149Z,24.98
2019-04-06T00:37:29.570Z,22.32
2019-04-06T00:39:57.993Z,21.42
2019-04-06T00:42:26.423Z,21.55
2019-04-06T00:44:54.849Z,22.48
2019-04-06T00:47:23.289Z,22.55
2019-04-06T00:49:51.705Z,21.73
2019-04-06T00:52:20.219Z,23.57
2019-04-06T00:54:48.653Z,23.55
2019-04-06T00:57:17.110Z,22.30
2019-04-06T00:59:45.523Z,24.23
2019-04-06T01:02:14.138Z,23.47
2019-04-06T01:04:42.709Z,23.22
2019-04-06T01:07:11.174Z,22.75
2019-04-06T01:09:39.900Z,21.60
2019-04-06T01:12:08.312Z,24.70
2019-04-06T01:14:36.737Z,22.45
2019-04-06T01:17:05.165Z,20.85
2019-04-06T01:19:33.586Z,24.45
2019-04-06T01:22:02.066Z,24.37
2019-04-06T01:24:30.524Z,21.77
2019-04-06T01:26:58.921Z,22.45
2019-04-06T01:29:27.430Z,22.15
2019-04-06T01:31:56.206Z,24.63
2019-04-06T01:34:24.689Z,22.80
2019-04-06T01:36:53.122Z,24.37
2019-04-06T01:39:21.850Z,22.55
2019-04-06T01:41:50.280Z,21.35
2019-04-06T01:44:18.780Z,22.35
2019-04-06T01:46:47.244Z,23.75
2019-04-06T01:49:15.653Z,21.93
2019-04-06T01:51:44.064Z,22.98
2019-04-06T01:54:12.482Z,25.10
2019-04-06T01:56:40.940Z,23.67
2019-04-06T01:59:09.349Z,23.15
2019-04-06T02:01:48.265Z,20.80
2019-04-06T02:04:16.834Z,23.83
2019-04-06T02:06:45.400Z,23.75
2019-04-06T02:09:13.833Z,22.50
2019-04-06T02:11:42.256Z,23.90
2019-04-06T02:14:10.755Z,21.42
2019-04-06T02:16:39.197Z,19.70
2019-04-06T02:19:07.697Z,21.37
2019-04-06T02:21:36.169Z,22.60
2019-04-06T02:24:04.601Z,22.75
2019-04-06T02:26:33.031Z,21.45
2019-04-06T02:29:01.501Z,21.70
2019-04-06T02:31:40.303Z,22.87
2019-04-06T02:34:10.462Z,20.50
2019-04-06T02:36:52.801Z,22.37
2019-04-06T02:39:39.005Z,26.85
2019-04-06T02:42:09.076Z,37.25
2019-04-06T02:44:37.521Z,23.40
2019-04-06T02:47:05.986Z,22.27
2019-04-06T02:49:34.488Z,22.10
2019-04-06T02:52:03.332Z,22.60
2019-04-06T02:54:31.811Z,22.62
2019-04-06T02:57:00.932Z,22.35
2019-04-06T02:59:29.456Z,21.85
2019-04-06T03:01:57.943Z,21.55
2019-04-06T03:04:26.597Z,21.00
2019-04-06T03:06:55.087Z,22.60
2019-04-06T03:09:23.508Z,22.17
2019-04-06T03:11:52.053Z,23.42
2019-04-06T03:14:20.500Z,21.27
2019-04-06T03:16:48.989Z,23.42
2019-04-06T03:19:17.659Z,19.48
2019-04-06T03:21:46.185Z,21.33
2019-04-06T03:24:14.645Z,23.15
2019-04-06T03:26:43.067Z,22.45
2019-04-06T03:29:11.552Z,22.67
2019-04-06T03:31:40.269Z,21.57
2019-04-06T03:34:08.964Z,20.90
2019-04-06T03:36:37.385Z,21.87
2019-04-06T03:39:06.741Z,21.80
2019-04-06T03:41:35.193Z,23.70
2019-04-06T03:44:03.667Z,21.12
2019-04-06T03:46:32.099Z,22.10
2019-04-06T03:49:00.581Z,23.50
2019-04-06T03:51:29.012Z,22.20
2019-04-06T03:53:57.440Z,20.92
2019-04-06T03:56:25.933Z,22.75
2019-04-06T03:58:54.350Z,22.35
2019-04-06T04:01:22.754Z,22.02
2019-04-06T04:03:51.236Z,21.50
2019-04-06T04:06:19.682Z,20.52
2019-04-06T04:08:48.445Z,20.25
2019-04-06T04:11:16.854Z,20.30
2019-04-06T04:13:45.491Z,21.27
2019-04-06T04:16:14.310Z,20.95
2019-04-06T04:18:42.780Z,21.15
2019-04-06T04:21:11.204Z,21.75
2019-04-06T04:23:39.726Z,23.95
2019-04-06T04:26:08.139Z,22.13
2019-04-06T04:28:36.588Z,21.68
2019-04-06T04:31:05.096Z,22.75
2019-04-06T04:33:33.797Z,22.13
2019-04-06T04:36:02.489Z,21.10
2019-04-06T04:38:30.939Z,22.65
2019-04-06T04:40:59.372Z,23.62
2019-04-06T04:43:27.826Z,22.25
2019-04-06T04:45:56.431Z,23.10
2019-04-06T04:48:24.938Z,22.90
2019-04-06T04:50:53.353Z,24.02
2019-04-06T04:53:21.791Z,22.60
2019-04-06T04:55:50.193Z,21.90
2019-04-06T04:58:18.656Z,21.82
2019-04-06T05:00:47.077Z,22.15
2019-04-06T05:03:15.592Z,22.07
2019-04-06T05:05:44.028Z,22.30
2019-04-06T05:08:12.594Z,22.35
2019-04-06T05:10:41.061Z,23.80
2019-04-06T05:13:09.511Z,23.20
2019-04-06T05:15:46.973Z,26.60
2019-04-06T05:18:15.412Z,22.87
2019-04-06T05:20:43.929Z,24.80
2019-04-06T05:23:12.342Z,25.35
2019-04-06T05:25:40.757Z,24.05
2019-04-06T05:28:09.165Z,22.27
2019-04-06T05:30:37.607Z,23.40
2019-04-06T05:33:06.361Z,24.90
2019-04-06T05:35:35.329Z,22.42
2019-04-06T05:38:03.756Z,24.98
2019-04-06T05:40:32.325Z,22.05
2019-04-06T05:43:00.743Z,23.83
2019-04-06T05:45:29.231Z,22.75
2019-04-06T05:47:57.701Z,23.85
2019-04-06T05:50:26.266Z,24.77
2019-04-06T05:52:54.697Z,23.12
2019-04-06T05:55:24.456Z,22.10
2019-04-06T05:58:02.888Z,25.72
2019-04-06T06:00:23.534Z,25.25
2019-04-06T06:02:52.043Z,24.20
2019-04-06T06:05:20.488Z,24.72
2019-04-06T06:07:49.078Z,22.75
2019-04-06T06:10:17.560Z,25.30
2019-04-06T06:12:45.988Z,24.10
2019-04-06T06:15:14.585Z,24.35
2019-04-06T06:17:43.014Z,24.52
2019-04-06T06:20:11.793Z,26.17
2019-04-06T06:22:40.638Z,24.80
2019-04-06T06:25:09.755Z,23.22
2019-04-06T06:27:38.353Z,24.55
2019-04-06T06:30:08.093Z,25.02
2019-04-06T06:32:36.559Z,24.37
2019-04-06T06:35:05.962Z,23.40
2019-04-06T06:37:34.381Z,23.62
2019-04-06T06:40:03.377Z,24.37
2019-04-06T06:42:31.993Z,25.48
2019-04-06T06:45:00.425Z,25.85
2019-04-06T06:47:29.069Z,25.00
2019-04-06T06:49:57.575Z,23.75
2019-04-06T06:52:26.014Z,25.30
2019-04-06T06:54:54.446Z,24.60
2019-04-06T06:57:22.850Z,24.18
2019-04-06T06:59:51.265Z,22.48
2019-04-06T07:02:19.805Z,23.55
2019-04-06T07:04:48.258Z,24.57
2019-04-06T07:07:16.717Z,25.20
2019-04-06T07:09:45.198Z,24.05
2019-04-06T07:12:13.633Z,24.47
2019-04-06T07:14:42.152Z,25.83
2019-04-06T07:17:10.610Z,25.45
2019-04-06T07:19:39.031Z,23.92
2019-04-06T07:22:07.623Z,23.73
2019-04-06T07:24:36.100Z,25.73
2019-04-06T07:27:04.844Z,24.25
2019-04-06T07:29:33.258Z,25.33
2019-04-06T07:32:01.757Z,26.20
2019-04-06T07:34:30.528Z,23.87
2019-04-06T07:36:58.985Z,24.00
2019-04-06T07:39:27.402Z,25.93
2019-04-06T07:41:55.870Z,25.17
2019-04-06T07:44:24.372Z,24.80
2019-04-06T07:46:52.978Z,25.57
2019-04-06T07:49:21.373Z,25.03
2019-04-06T07:51:49.877Z,27.47
2019-04-06T07:54:18.590Z,24.65
2019-04-06T07:56:47.064Z,24.50
2019-04-06T07:59:15.960Z,26.35
2019-04-06T08:01:44.498Z,24.20
2019-04-06T08:04:13.493Z,27.37
2019-04-06T08:06:42.048Z,28.27
2019-04-06T08:09:10.575Z,25.23
2019-04-06T08:11:39.074Z,27.27
2019-04-06T08:14:07.517Z,27.50
2019-04-06T08:16:35.939Z,28.70
2019-04-06T08:19:04.638Z,26.33
2019-04-06T08:21:33.093Z,27.53
2019-04-06T08:24:01.530Z,26.87
2019-04-06T08:26:29.988Z,28.40
2019-04-06T08:29:01.445Z,29.20
2019-04-06T08:31:28.895Z,26.80
2019-04-06T08:33:57.347Z,28.03
2019-04-06T08:36:25.908Z,29.90
2019-04-06T08:38:54.514Z,32.40
2019-04-06T08:41:23.087Z,28.80
2019-04-06T08:43:51.920Z,25.13
2019-04-06T08:46:20.377Z,27.27
2019-04-06T08:48:48.830Z,24.53
2019-04-06T08:51:17.684Z,23.77
2019-04-06T08:53:46.201Z,21.00
2019-04-06T08:56:14.609Z,25.63
2019-04-06T08:58:43.052Z,24.40
2019-04-06T09:01:11.508Z,22.30
2019-04-06T09:03:40.399Z,20.77
2019-04-06T09:06:09.284Z,22.33
2019-04-06T09:08:37.797Z,24.50
2019-04-06T09:11:06.243Z,20.93
2019-04-06T09:13:35.051Z,21.07
2019-04-06T09:16:04.006Z,21.40
2019-04-06T09:18:32.737Z,20.93
2019-04-06T09:21:01.734Z,21.87
2019-04-06T09:23:30.400Z,21.90
2019-04-06T09:25:58.893Z,21.63
2019-04-06T09:28:27.396Z,20.80
2019-04-06T09:30:55.844Z,22.47
2019-04-06T09:33:24.333Z,21.83
2019-04-06T09:35:54.081Z,21.17
2019-04-06T09:38:22.509Z,19.90
2019-04-06T09:40:51.057Z,21.37
2019-04-06T09:43:19.526Z,22.20
2019-04-06T09:45:49.646Z,23.40
2019-04-06T09:48:22.163Z,23.73
2019-04-06T09:51:08.463Z,22.60
2019-04-06T09:53:38.545Z,24.33
2019-04-06T09:56:09.032Z,22.67
2019-04-06T09:58:39.458Z,24.10
2019-04-06T10:01:09.588Z,16.83
2019-04-06T10:03:56.020Z,20.70
2019-04-06T10:06:42.596Z,24.50
2019-04-06T10:09:12.778Z,20.23
2019-04-06T10:11:45.710Z,22.50
2019-04-06T10:14:16.150Z,23.20
2019-04-06T10:16:58.354Z,23.13
2019-04-06T10:19:44.857Z,23.37
2019-04-06T10:22:20.779Z,21.77
2019-04-06T10:24:59.663Z,22.87
2019-04-06T10:27:29.721Z,22.63
2019-04-06T10:30:18.076Z,23.37
2019-04-06T10:32:50.969Z,23.20
2019-04-06T10:35:37.035Z,23.40
2019-04-06T10:38:10.191Z,19.30
2019-04-06T10:40:42.969Z,22.30
2019-04-06T10:43:16.352Z,20.80
2019-04-06T10:45:55.461Z,19.60
2019-04-06T10:48:25.781Z,20.90
2019-04-06T10:50:55.841Z,20.73
2019-04-06T10:53:28.349Z,20.67
2019-04-06T10:55:58.398Z,18.00
2019-04-06T10:58:31.012Z,18.87
2019-04-06T11:01:03.841Z,19.50
2019-04-06T11:03:52.264Z,19.90
2019-04-06T11:06:34.972Z,17.23
2019-04-06T11:09:06.641Z,16.43
2019-04-06T11:11:48.854Z,16.57
2019-04-06T11:14:33.601Z,17.43
2019-04-06T11:17:06.085Z,17.67
2019-04-06T11:19:51.662Z,15.20
2019-04-06T11:22:24.589Z,15.27
2019-04-06T11:24:54.885Z,14.47
2019-04-06T11:27:41.566Z,15.07
2019-04-06T11:30:15.371Z,16.83
2019-04-06T11:32:48.325Z,16.10
2019-04-06T11:35:34.877Z,15.33
2019-04-06T11:38:17.150Z,15.87
2019-04-06T11:40:47.579Z,15.23
2019-04-06T11:43:17.774Z,14.70
2019-04-06T11:45:54.246Z,14.60
2019-04-06T11:48:30.555Z,14.93
2019-04-06T11:51:19.671Z,14.50
2019-04-06T11:53:49.956Z,13.57
2019-04-06T11:56:20.130Z,13.63
2019-04-06T11:58:53.537Z,14.87
2019-04-06T12:01:24.008Z,13.63
2019-04-06T12:03:54.057Z,16.50
2019-04-06T12:06:26.665Z,14.60
2019-04-06T12:08:56.733Z,15.27
2019-04-06T12:11:29.585Z,16.23
2019-04-06T12:14:02.126Z,19.53
2019-04-06T12:16:47.250Z,17.37
2019-04-06T12:19:19.997Z,16.90
2019-04-06T12:21:50.093Z,17.67
2019-04-06T12:24:32.195Z,16.63
2019-04-06T12:27:02.671Z,16.90
2019-04-06T12:29:49.553Z,18.37
2019-04-06T12:32:22.417Z,16.73
2019-04-06T12:35:01.282Z,15.90
2019-04-06T12:37:47.843Z,16.20
2019-04-06T12:40:53.733Z,15.17
2019-04-06T12:43:32.819Z,16.10
2019-04-06T12:46:03.530Z,15.70
2019-04-06T12:48:33.588Z,13.97
2019-04-06T12:51:04.118Z,15.10
2019-04-06T12:53:53.282Z,14.70
2019-04-06T12:56:41.630Z,15.90
2019-04-06T12:59:21.054Z,13.90
2019-04-06T13:02:08.162Z,15.03
2019-04-06T13:04:54.820Z,13.50
2019-04-06T13:07:30.803Z,13.03
2019-04-06T13:10:19.033Z,14.03
2019-04-06T13:13:05.658Z,14.33
2019-04-06T13:15:52.436Z,14.87
2019-04-06T13:18:31.437Z,13.30
2019-04-06T13:21:07.255Z,14.87
2019-04-06T13:23:46.356Z,12.37
2019-04-06T13:26:16.486Z,14.33
2019-04-06T13:28:46.778Z,13.37
2019-04-06T13:31:16.881Z,14.90
2019-04-06T13:33:49.938Z,14.70
2019-04-06T13:36:20.335Z,14.33
2019-04-06T13:38:53.449Z,14.37
2019-04-06T13:41:35.852Z,13.77
2019-04-06T13:44:18.245Z,13.30
2019-04-06T13:46:57.990Z,13.53
2019-04-06T13:49:34.446Z,12.17
2019-04-06T13:52:16.565Z,13.50
2019-04-06T13:55:03.250Z,13.93
2019-04-06T13:57:51.646Z,11.53
2019-04-06T14:00:27.921Z,12.10
2019-04-06T14:02:58.079Z,11.67
2019-04-06T14:05:28.438Z,13.30
2019-04-06T14:07:58.828Z,9.40
2019-04-06T14:10:45.384Z,10.07
2019-04-06T14:13:30.642Z,12.40
2019-04-06T14:16:13.197Z,12.10
2019-04-06T14:18:58.841Z,13.40
2019-04-06T14:21:31.492Z,12.13
2019-04-06T14:24:07.161Z,10.50
2019-04-06T14:26:48.831Z,11.83
2019-04-06T14:29:21.705Z,11.10
2019-04-06T14:32:08.272Z,12.53
2019-04-06T14:34:41.089Z,10.97
2019-04-06T14:37:16.998Z,11.60
2019-04-06T14:39:50.069Z,12.60
2019-04-06T14:42:32.107Z,11.77
2019-04-06T14:45:02.364Z,11.93
2019-04-06T14:47:36.012Z,10.40
2019-04-06T14:50:24.140Z,12.27
2019-04-06T14:52:57.452Z,9.80
2019-04-06T14:55:39.993Z,11.10
2019-04-06T14:58:10.270Z,10.03
2019-04-06T15:00:54.110Z,11.00
2019-04-06T15:03:27.038Z,8.47
2019-04-06T15:06:11.956Z,10.03
2019-04-06T15:08:42.307Z,10.20
2019-04-06T15:11:14.968Z,10.93
2019-04-06T15:13:54.232Z,11.67
2019-04-06T15:16:36.301Z,10.53
2019-04-06T15:19:09.401Z,11.57
2019-04-06T15:21:39.614Z,10.97
2019-04-06T15:24:12.671Z,10.13
2019-04-06T15:27:01.049Z,8.97
2019-04-06T15:29:37.225Z,10.30
2019-04-06T15:32:23.400Z,12.07
2019-04-06T15:35:09.836Z,10.47
2019-04-06T15:37:42.850Z,10.33
2019-04-06T15:40:16.690Z,11.17
2019-04-06T15:42:47.033Z,10.17
2019-04-06T15:45:22.957Z,8.87
2019-04-06T15:48:05.324Z,9.57
2019-04-06T15:50:35.562Z,7.97
2019-04-06T15:53:21.673Z,8.70
2019-04-06T15:56:09.721Z,7.70
2019-04-06T15:58:56.289Z,8.33
2019-04-06T16:01:42.984Z,7.93
2019-04-06T16:04:19.255Z,9.77
2019-04-06T16:07:05.719Z,8.43
2019-04-06T16:09:53.077Z,9.07
2019-04-06T16:12:29.314Z,7.87
2019-04-06T16:15:16.118Z,8.07
2019-04-06T16:17:49.181Z,8.27
2019-04-06T16:20:19.582Z,8.60
2019-04-06T16:22:55.679Z,8.80
2019-04-06T16:25:25.920Z,9.20
2019-04-06T16:27:59.045Z,8.10
2019-04-06T16:30:35.181Z,9.57
2019-04-06T16:33:05.303Z,9.17
2019-04-06T16:35:35.449Z,9.87
2019-04-06T16:38:17.737Z,10.60
2019-04-06T16:40:51.134Z,9.27
2019-04-06T16:43:27.161Z,10.00
2019-04-06T16:46:02.430Z,9.90
2019-04-06T16:48:38.151Z,9.27
2019-04-06T16:51:14.114Z,9.10
2019-04-06T16:53:56.143Z,9.30
2019-04-06T16:56:26.254Z,9.53
2019-04-06T16:59:05.102Z,10.17
2019-04-06T17:01:41.278Z,8.97
2019-04-06T17:04:11.372Z,8.97
2019-04-06T17:06:41.726Z,9.23
2019-04-06T17:09:17.765Z,8.90
2019-04-06T17:11:53.636Z,11.30
2019-04-06T17:14:39.960Z,10.33
2019-04-06T17:17:22.117Z,6.77
2019-04-06T17:19:52.378Z,7.30
2019-04-06T17:22:25.257Z,7.87
2019-04-06T17:25:12.266Z,10.67
2019-04-06T17:27:54.873Z,9.10
2019-04-06T17:30:27.649Z,11.13
2019-04-06T17:32:58.128Z,9.23
2019-04-06T17:35:31.153Z,10.93
2019-04-06T17:38:01.397Z,7.43
2019-04-06T17:40:47.043Z,8.37
2019-04-06T17:43:17.166Z,8.90
2019-04-06T17:45:56.024Z,9.20
2019-04-06T17:48:32.191Z,7.70
2019-04-06T17:51:11.235Z,8.77
2019-04-06T17:53:59.655Z,19.30
2019-04-06T17:56:38.808Z,8.87
2019-04-06T17:59:08.943Z,8.80
2019-04-06T18:01:39.091Z,8.60
2019-04-06T18:04:09.417Z,9.20
2019-04-06T18:06:39.730Z,9.00
2019-04-06T18:09:13.514Z,8.20
2019-04-06T18:11:49.842Z,9.93
2019-04-06T18:14:18.952Z,9.87
2019-04-06T18:16:47.477Z,9.00
2019-04-06T18:19:15.911Z,8.87
2019-04-06T18:21:44.711Z,8.70
2019-04-06T18:24:13.159Z,9.90
2019-04-06T18:26:41.575Z,8.53
2019-04-06T18:29:09.997Z,9.03
2019-04-06T18:31:51.918Z,9.80
2019-04-06T18:34:20.365Z,9.27
2019-04-06T18:36:53.468Z,8.67
2019-04-06T18:39:23.634Z,8.57
2019-04-06T18:41:52.085Z,19.07
2019-04-06T18:44:20.780Z,9.47
2019-04-06T18:46:49.392Z,9.10
2019-04-06T18:49:18.157Z,11.43
2019-04-06T18:51:46.749Z,9.90
2019-04-06T18:54:15.497Z,10.20
2019-04-06T18:56:44.000Z,10.77
2019-04-06T18:59:12.944Z,10.83
2019-04-06T19:01:41.482Z,9.63
2019-04-06T19:04:10.396Z,9.03
2019-04-06T19:06:38.917Z,10.60
2019-04-06T19:09:20.783Z,9.80
2019-04-06T19:11:39.356Z,9.97
2019-04-06T19:14:07.883Z,10.17
2019-04-06T19:16:36.668Z,9.43
2019-04-06T19:19:05.687Z,10.47
2019-04-06T19:21:34.620Z,8.93
2019-04-06T19:24:03.167Z,10.37
2019-04-06T19:26:31.653Z,9.40
2019-04-06T19:29:00.508Z,11.23
2019-04-06T19:31:29.954Z,10.23
2019-04-06T19:33:58.867Z,10.40
2019-04-06T19:36:27.456Z,12.40
2019-04-06T19:38:56.397Z,12.13
2019-04-06T19:41:24.933Z,22.10
2019-04-06T19:43:53.420Z,12.97
2019-04-06T19:46:21.993Z,11.40
2019-04-06T19:48:50.594Z,12.23
2019-04-06T19:51:19.037Z,10.87
2019-04-06T19:53:48.265Z,10.43
2019-04-06T19:56:16.817Z,10.03
2019-04-06T19:58:45.243Z,9.57
2019-04-06T20:01:13.687Z,10.30
2019-04-06T20:03:42.443Z,12.90
2019-04-06T20:06:10.848Z,20.90
2019-04-06T20:08:39.730Z,10.43
2019-04-06T20:11:08.135Z,15.00
2019-04-06T20:13:36.567Z,12.13
2019-04-06T20:16:05.155Z,12.17
2019-04-06T20:18:33.681Z,12.67
2019-04-06T20:21:02.108Z,11.93
2019-04-06T20:23:30.519Z,13.10
2019-04-06T20:25:58.942Z,11.13
2019-04-06T20:28:27.751Z,11.70
2019-04-06T20:30:57.131Z,12.30
2019-04-06T20:33:25.803Z,11.53
2019-04-06T20:35:54.889Z,9.80
2019-04-06T20:38:23.511Z,12.50
2019-04-06T20:40:52.200Z,10.60
2019-04-06T20:43:21.337Z,10.93
2019-04-06T20:45:50.055Z,11.53
2019-04-06T20:48:18.588Z,9.73
2019-04-06T20:50:47.066Z,11.10
2019-04-06T20:53:15.555Z,10.80
2019-04-06T20:55:43.971Z,10.23
2019-04-06T20:58:12.423Z,11.67
2019-04-06T21:00:41.524Z,10.50
2019-04-06T21:03:10.071Z,10.33
2019-04-06T21:05:38.556Z,11.30
2019-04-06T21:08:07.057Z,12.63
2019-04-06T21:10:36.210Z,10.90
2019-04-06T21:13:05.395Z,10.57
2019-04-06T21:15:34.139Z,8.90
2019-04-06T21:18:02.577Z,12.20
2019-04-06T21:20:31.457Z,15.23
2019-04-06T21:23:00.125Z,12.07
2019-04-06T21:25:28.710Z,8.53
2019-04-06T21:27:57.151Z,22.77
2019-04-06T21:30:25.743Z,10.10
2019-04-06T21:32:54.781Z,7.20
2019-04-06T21:35:23.575Z,7.83
2019-04-06T21:37:52.846Z,7.97
2019-04-06T21:40:21.488Z,12.30
2019-04-06T21:42:50.044Z,10.00
2019-04-06T21:45:18.549Z,11.83
2019-04-06T21:47:47.820Z,12.07
2019-04-06T21:50:17.213Z,9.17
2019-04-06T21:52:46.200Z,15.33
2019-04-06T21:55:15.022Z,6.10
2019-04-06T21:57:43.594Z,16.23
2019-04-06T22:00:14.197Z,6.27
2019-04-06T22:02:42.658Z,27.23
2019-04-06T22:05:11.520Z,5.77
2019-04-06T22:07:48.096Z,5.03
2019-04-06T22:10:10.606Z,67.53
2019-04-06T22:12:39.900Z,4.60
2019-04-06T22:15:09.949Z,5.00
2019-04-06T22:17:38.383Z,4.85
2019-04-06T22:20:07.434Z,5.03
2019-04-06T22:22:36.038Z,5.20
2019-04-06T22:25:05.772Z,4.10
2019-04-06T22:27:34.590Z,4.57
2019-04-06T22:30:06.051Z,5.20
2019-04-06T22:32:34.470Z,4.30
2019-04-06T22:35:03.525Z,4.87
2019-04-06T22:37:32.628Z,4.67
2019-04-06T22:40:02.255Z,5.07
2019-04-06T22:42:30.941Z,5.07
2019-04-06T22:44:59.401Z,4.80
2019-04-06T22:47:27.825Z,5.33
2019-04-06T22:49:56.256Z,4.58
2019-04-06T22:52:25.113Z,4.67
2019-04-06T22:54:54.153Z,4.72
2019-04-06T22:57:22.660Z,5.10
2019-04-06T22:59:51.069Z,4.50
2019-04-06T23:02:19.566Z,4.97
2019-04-06T23:04:52.497Z,4.63
2019-04-06T23:07:22.655Z,4.83
2019-04-06T23:09:51.101Z,4.47
2019-04-06T23:12:20.377Z,4.55
2019-04-06T23:14:48.951Z,4.33
2019-04-06T23:17:18.007Z,4.43
2019-04-06T23:19:46.888Z,3.80
2019-04-06T23:22:15.845Z,3.87
2019-04-06T23:24:44.365Z,4.40
2019-04-06T23:27:12.809Z,4.58
2019-04-06T23:29:41.792Z,4.30
2019-04-06T23:32:10.518Z,3.47
2019-04-06T23:34:38.955Z,3.90
2019-04-06T23:37:07.440Z,4.53
2019-04-06T23:39:35.874Z,4.00
2019-04-06T23:42:04.619Z,4.90
2019-04-06T23:44:33.142Z,9.57
2019-04-06T23:47:02.038Z,8.43
2019-04-06T23:49:30.591Z,6.13
2019-04-06T23:51:59.056Z,4.70
2019-04-06T23:54:27.567Z,5.03
2019-04-06T23:56:56.004Z,4.77
2019-04-06T23:59:24.421Z,4.20
